createdAt,value
2019-06-08T00:03:43.707Z,17.60
2019-06-08T00:08:48.668Z,17.50
2019-06-08T00:13:53.644Z,17.50
2019-06-08T00:18:58.655Z,17.50
2019-06-08T00:24:04.634Z,17.50
2019-06-08T00:29:09.622Z,17.50
2019-06-08T00:34:14.679Z,17.50
2019-06-08T00:39:20.912Z,17.50
2019-06-08T00:44:25.996Z,17.40
2019-06-08T00:49:30.962Z,17.30
2019-06-08T00:54:35.952Z,17.30
2019-06-08T00:59:40.998Z,17.30
2019-06-08T01:04:45.987Z,17.20
2019-06-08T01:09:50.984Z,17.20
2019-06-08T01:14:55.991Z,17.20
2019-06-08T01:20:01.052Z,17.20
2019-06-08T01:25:06.369Z,17.10
2019-06-08T01:30:11.335Z,17.10
2019-06-08T01:35:16.394Z,17.10
2019-06-08T01:40:21.385Z,17.10
2019-06-08T01:45:33.050Z,17.00
2019-06-08T01:50:38.321Z,17.10
2019-06-08T01:55:43.337Z,17.10
2019-06-08T02:00:48.519Z,17.00
2019-06-08T02:05:53.500Z,17.00
2019-06-08T02:10:58.499Z,17.00
2019-06-08T02:16:03.481Z,17.10
2019-06-08T02:21:08.517Z,17.10
2019-06-08T02:26:13.559Z,17.10
2019-06-08T02:31:18.530Z,17.10
2019-06-08T02:36:23.935Z,17.10
2019-06-08T02:41:29.068Z,17.10
2019-06-08T02:46:35.950Z,17.10
2019-06-08T02:51:41.157Z,16.90
2019-06-08T02:56:47.876Z,17.00
2019-06-08T03:01:53.224Z,17.00
2019-06-08T03:06:58.350Z,17.00
2019-06-08T03:12:06.251Z,17.00
2019-06-08T03:17:11.366Z,17.10
2019-06-08T03:22:16.419Z,17.20
2019-06-08T03:27:21.394Z,17.40
2019-06-08T03:32:26.366Z,17.50
2019-06-08T03:37:31.407Z,17.70
2019-06-08T03:42:36.838Z,18.20
2019-06-08T03:47:43.608Z,18.50
2019-06-08T03:52:48.580Z,18.70
2019-06-08T03:57:53.552Z,18.90
2019-06-08T04:02:58.618Z,19.10
2019-06-08T04:08:03.612Z,19.00
2019-06-08T04:13:11.374Z,19.20
2019-06-08T04:18:15.343Z,19.40
2019-06-08T04:23:20.581Z,20.00
2019-06-08T04:28:25.532Z,20.40
2019-06-08T04:33:30.566Z,20.60
2019-06-08T04:38:35.542Z,20.70
2019-06-08T04:43:42.852Z,20.80
2019-06-08T04:48:50.023Z,21.10
2019-06-08T04:53:55.403Z,21.40
2019-06-08T04:59:00.431Z,21.70
2019-06-08T05:04:05.397Z,21.70
2019-06-08T05:09:10.356Z,21.40
2019-06-08T05:14:15.305Z,20.90
2019-06-08T05:19:20.244Z,20.60
2019-06-08T05:24:25.288Z,20.50
2019-06-08T05:29:30.237Z,20.50
2019-06-08T05:34:35.363Z,20.60
2019-06-08T05:39:41.405Z,21.30
2019-06-08T05:44:47.789Z,21.30
2019-06-08T05:49:52.913Z,21.90
2019-06-08T05:54:57.944Z,21.70
2019-06-08T06:00:08.840Z,22.00
2019-06-08T06:05:09.663Z,22.70
2019-06-08T06:10:15.287Z,23.00
2019-06-08T06:15:20.322Z,23.20
2019-06-08T06:20:25.345Z,23.20
2019-06-08T06:25:30.366Z,23.10
2019-06-08T06:30:35.322Z,22.90
2019-06-08T06:35:41.442Z,22.60
2019-06-08T06:40:47.994Z,22.10
2019-06-08T06:45:53.211Z,22.00
2019-06-08T06:50:58.245Z,22.00
2019-06-08T06:56:04.338Z,21.90
2019-06-08T07:01:09.284Z,22.10
2019-06-08T07:06:14.235Z,22.60
2019-06-08T07:11:19.931Z,22.80
2019-06-08T07:16:25.090Z,23.40
2019-06-08T07:21:41.308Z,23.80
2019-06-08T07:26:37.181Z,24.10
2019-06-08T07:31:42.200Z,24.10
2019-06-08T07:36:48.332Z,24.10
2019-06-08T07:41:55.853Z,23.40
2019-06-08T07:47:01.062Z,23.60
2019-06-08T07:52:10.348Z,23.50
2019-06-08T07:57:13.231Z,23.50
2019-06-08T08:02:18.227Z,24.10
2019-06-08T08:07:23.306Z,24.50
2019-06-08T08:12:28.257Z,23.90
2019-06-08T08:17:34.432Z,23.90
2019-06-08T08:22:39.672Z,23.70
2019-06-08T08:27:44.721Z,24.70
2019-06-08T08:32:50.959Z,25.00
2019-06-08T08:38:00.775Z,24.60
2019-06-08T08:43:02.962Z,24.60
2019-06-08T08:48:21.484Z,24.70
2019-06-08T08:53:14.539Z,24.30
2019-06-08T08:58:19.684Z,24.50
2019-06-08T09:03:29.585Z,24.70
2019-06-08T09:08:31.199Z,25.80
2019-06-08T09:13:37.725Z,25.20
2019-06-08T09:18:42.902Z,25.30
2019-06-08T09:23:48.633Z,24.70
2019-06-08T09:28:54.496Z,24.70
2019-06-08T09:34:08.310Z,25.60
2019-06-08T09:39:12.280Z,25.50
2019-06-08T09:44:14.930Z,24.50
2019-06-08T09:49:20.133Z,24.60
2019-06-08T09:54:25.214Z,24.80
2019-06-08T09:59:30.215Z,24.20
2019-06-08T10:04:35.220Z,24.00
2019-06-08T10:09:43.265Z,23.80
2019-06-08T10:14:48.874Z,24.50
2019-06-08T10:19:54.694Z,24.70
2019-06-08T10:25:02.799Z,24.80
2019-06-08T10:30:09.930Z,24.40
2019-06-08T10:35:14.063Z,23.80
2019-06-08T10:40:19.043Z,24.00
2019-06-08T10:45:24.089Z,23.90
2019-06-08T10:50:29.127Z,24.00
2019-06-08T10:55:34.154Z,24.50
2019-06-08T11:00:39.197Z,24.50
2019-06-08T11:05:45.396Z,23.90
2019-06-08T11:10:50.451Z,24.00
2019-06-08T11:15:58.055Z,24.10
2019-06-08T11:21:03.536Z,23.80
2019-06-08T11:26:19.140Z,23.90
2019-06-08T11:31:19.438Z,23.90
2019-06-08T11:36:23.081Z,23.80
2019-06-08T11:41:28.122Z,23.80
2019-06-08T11:46:33.197Z,23.10
2019-06-08T11:51:38.215Z,22.50
2019-06-08T11:56:43.257Z,22.30
2019-06-08T12:01:50.460Z,22.20
2019-06-08T12:06:54.938Z,21.90
2019-06-08T12:11:59.988Z,21.80
2019-06-08T12:17:05.195Z,21.70
2019-06-08T12:22:11.632Z,21.90
2019-06-08T12:27:29.518Z,21.80
2019-06-08T12:32:23.541Z,21.80
2019-06-08T12:37:28.572Z,21.50
2019-06-08T12:42:33.546Z,21.50
2019-06-08T12:47:38.746Z,21.30
2019-06-08T12:52:43.694Z,21.40
2019-06-08T12:57:51.499Z,21.50
2019-06-08T13:02:55.241Z,22.00
2019-06-08T13:08:00.208Z,22.40
2019-06-08T13:13:05.407Z,22.30
2019-06-08T13:18:11.959Z,22.50
2019-06-08T13:23:19.654Z,22.70
2019-06-08T13:28:25.517Z,23.00
2019-06-08T13:33:30.398Z,23.30
2019-06-08T13:38:35.381Z,23.40
2019-06-08T13:43:40.622Z,24.00
2019-06-08T13:48:48.086Z,24.60
2019-06-08T13:53:52.291Z,24.60
2019-06-08T13:58:57.255Z,24.90
2019-06-08T14:04:02.291Z,25.10
2019-06-08T14:09:08.282Z,25.40
2019-06-08T14:14:13.450Z,25.20
2019-06-08T14:19:19.985Z,25.20
2019-06-08T14:24:31.836Z,25.20
2019-06-08T14:29:31.637Z,25.10
2019-06-08T14:34:38.651Z,25.10
2019-06-08T14:39:43.266Z,24.90
2019-06-08T14:44:48.249Z,24.70
2019-06-08T14:49:53.227Z,24.90
2019-06-08T14:54:58.689Z,24.70
2019-06-08T15:00:09.645Z,24.70
2019-06-08T15:05:14.542Z,24.70
2019-06-08T15:10:21.350Z,24.90
2019-06-08T15:15:28.907Z,24.70
2019-06-08T15:20:32.682Z,24.60
2019-06-08T15:25:38.704Z,24.40
2019-06-08T15:30:43.916Z,24.40
2019-06-08T15:35:48.848Z,24.50
2019-06-08T15:40:53.923Z,24.40
2019-06-08T15:45:59.269Z,24.50
2019-06-08T15:51:04.419Z,24.30
2019-06-08T15:56:09.738Z,24.10
2019-06-08T16:01:14.849Z,24.00
2019-06-08T16:06:19.894Z,23.90
2019-06-08T16:11:26.028Z,23.70
2019-06-08T16:16:31.210Z,23.60
2019-06-08T16:21:36.285Z,23.40
2019-06-08T16:26:52.634Z,23.40
2019-06-08T16:31:49.014Z,23.10
2019-06-08T16:36:54.028Z,23.10
2019-06-08T16:41:58.985Z,23.00
2019-06-08T16:47:03.985Z,22.90
2019-06-08T16:52:09.865Z,22.70
2019-06-08T16:57:14.829Z,22.50
2019-06-08T17:02:19.802Z,22.50
2019-06-08T17:07:24.775Z,22.40
2019-06-08T17:12:30.702Z,22.20
2019-06-08T17:17:36.574Z,22.10
2019-06-08T17:22:41.740Z,21.90
2019-06-08T17:27:46.709Z,21.80
2019-06-08T17:32:51.674Z,21.80
2019-06-08T17:37:56.690Z,21.70
2019-06-08T17:43:01.677Z,21.60
2019-06-08T17:48:06.702Z,21.40
2019-06-08T17:53:11.649Z,21.30
2019-06-08T17:58:16.601Z,21.20
2019-06-08T18:03:21.635Z,21.10
2019-06-08T18:08:28.230Z,21.00
2019-06-08T18:13:33.976Z,20.90
2019-06-08T18:18:41.806Z,20.80
2019-06-08T18:23:48.020Z,20.70
2019-06-08T18:28:55.036Z,20.50
2019-06-08T18:34:01.965Z,20.30
2019-06-08T18:39:07.216Z,20.20
2019-06-08T18:44:12.353Z,19.90
2019-06-08T18:49:17.879Z,19.80
2019-06-08T18:54:23.118Z,19.70
2019-06-08T18:59:28.819Z,19.50
2019-06-08T19:04:37.438Z,19.30
2019-06-08T19:09:42.618Z,19.20
2019-06-08T19:14:50.091Z,18.90
2019-06-08T19:19:54.831Z,18.80
2019-06-08T19:24:59.865Z,18.60
2019-06-08T19:30:05.869Z,18.40
2019-06-08T19:35:10.943Z,18.20
2019-06-08T19:40:17.656Z,18.00
2019-06-08T19:45:22.700Z,17.90
2019-06-08T19:50:28.747Z,17.70
2019-06-08T19:55:33.997Z,17.60
2019-06-08T20:00:40.452Z,17.50
2019-06-08T20:05:46.800Z,17.40
2019-06-08T20:10:53.405Z,17.40
2019-06-08T20:16:01.934Z,17.20
2019-06-08T20:21:10.063Z,17.10
2019-06-08T20:26:12.986Z,17.00
2019-06-08T20:31:18.131Z,16.80
2019-06-08T20:36:23.147Z,16.70
2019-06-08T20:41:28.091Z,16.70
2019-06-08T20:46:33.054Z,16.50
2019-06-08T20:51:39.014Z,16.30
2019-06-08T20:56:44.966Z,16.30
2019-06-08T21:01:52.694Z,16.20
2019-06-08T21:06:57.466Z,16.10
2019-06-08T21:12:03.754Z,16.10
2019-06-08T21:17:08.717Z,15.80
2019-06-08T21:22:13.680Z,15.60
2019-06-08T21:27:18.612Z,15.50
2019-06-08T21:32:24.543Z,15.30
2019-06-08T21:37:29.487Z,15.20
2019-06-08T21:42:36.963Z,15.30
2019-06-08T21:47:41.469Z,15.30
2019-06-08T21:52:48.661Z,15.20
2019-06-08T21:57:54.324Z,15.10
2019-06-08T22:03:00.254Z,15.00
2019-06-08T22:08:07.793Z,14.80
2019-06-08T22:13:12.502Z,14.90
2019-06-08T22:18:18.451Z,14.80
2019-06-08T22:23:23.595Z,14.80
2019-06-08T22:28:28.724Z,14.70
2019-06-08T22:33:33.773Z,14.60
2019-06-08T22:38:38.760Z,14.50
2019-06-08T22:43:44.755Z,14.40
2019-06-08T22:48:49.810Z,14.30
2019-06-08T22:53:58.877Z,14.10
2019-06-08T22:59:04.729Z,14.20
2019-06-08T23:04:09.182Z,14.10
2019-06-08T23:09:14.108Z,13.90
2019-06-08T23:14:19.041Z,14.20
2019-06-08T23:19:26.358Z,14.10
2019-06-08T23:24:31.672Z,14.10
2019-06-08T23:29:38.190Z,13.90
2019-06-08T23:34:43.461Z,13.70
2019-06-08T23:39:48.423Z,13.50
2019-06-08T23:44:53.436Z,13.60
2019-06-08T23:50:00.726Z,13.50
2019-06-08T23:55:06.167Z,13.40
